sensor_id;sensor_type;location;lat;lon;timestamp;temperature;humidity
1992;DHT22;997;48.448;8.924;2022-10-31T04:04:40;11.30;99.90
1992;DHT22;997;48.448;8.924;2022-10-31T04:07:07;11.30;99.90
1992;DHT22;997;48.448;8.924;2022-10-31T04:09:35;11.30;99.90
1992;DHT22;997;48.448;8.924;2022-10-31T04:12:03;11.30;99.90
1992;DHT22;997;48.448;8.924;2022-10-31T04:14:36;11.30;99.90
1992;DHT22;997;48.448;8.924;2022-10-31T04:17:15;11.30;99.90
1992;DHT22;997;48.448;8.924;2022-10-31T04:19:42;11.40;99.90
1992;DHT22;997;48.448;8.924;2022-10-31T04:22:07;11.40;99.90
1992;DHT22;997;48.448;8.924;2022-10-31T04:24:33;11.40;99.90
1992;DHT22;997;48.448;8.924;2022-10-31T04:26:59;11.50;99.90
1992;DHT22;997;48.448;8.924;2022-10-31T04:29:24;11.50;99.90
1992;DHT22;997;48.448;8.924;2022-10-31T04:31:50;11.50;99.90
1992;DHT22;997;48.448;8.924;2022-10-31T04:34:16;11.40;99.90
1992;DHT22;997;48.448;8.924;2022-10-31T04:36:41;11.40;99.90
1992;DHT22;997;48.448;8.924;2022-10-31T04:39:07;11.40;99.90
1992;DHT22;997;48.448;8.924;2022-10-31T04:41:33;11.20;99.90
1992;DHT22;997;48.448;8.924;2022-10-31T04:43:58;11.30;99.90
1992;DHT22;997;48.448;8.924;2022-10-31T04:46:24;11.30;99.90
1992;DHT22;997;48.448;8.924;2022-10-31T04:48:49;11.40;99.90
1992;DHT22;997;48.448;8.924;2022-10-31T04:51:15;11.20;99.90
1992;DHT22;997;48.448;8.924;2022-10-31T04:53:41;11.10;99.90
1992;DHT22;997;48.448;8.924;2022-10-31T04:56:06;11.10;99.90
1992;DHT22;997;48.448;8.924;2022-10-31T04:58:32;11.20;99.90
1992;DHT22;997;48.448;8.924;2022-10-31T05:00:58;11.20;99.90
1992;DHT22;997;48.448;8.924;2022-10-31T05:03:23;11.30;99.90
1992;DHT22;997;48.448;8.924;2022-10-31T05:05:49;11.20;99.90
1992;DHT22;997;48.448;8.924;2022-10-31T05:08:15;11.10;99.90
1992;DHT22;997;48.448;8.924;2022-10-31T05:10:41;11.00;99.90
1992;DHT22;997;48.448;8.924;2022-10-31T05:13:07;11.00;99.90
1992;DHT22;997;48.448;8.924;2022-10-31T05:15:32;10.80;99.90
1992;DHT22;997;48.448;8.924;2022-10-31T05:17:58;10.70;99.90
1992;DHT22;997;48.448;8.924;2022-10-31T05:20:27;10.70;99.90
1992;DHT22;997;48.448;8.924;2022-10-31T05:22:55;10.70;99.90
1992;DHT22;997;48.448;8.924;2022-10-31T05:25:23;10.60;99.90
1992;DHT22;997;48.448;8.924;2022-10-31T05:27:50;10.60;99.90
1992;DHT22;997;48.448;8.924;2022-10-31T05:30:29;10.70;99.90
1992;DHT22;997;48.448;8.924;2022-10-31T05:32:55;10.50;99.90
1992;DHT22;997;48.448;8.924;2022-10-31T05:35:30;10.40;99.90
1992;DHT22;997;48.448;8.924;2022-10-31T05:37:56;10.50;99.90
1992;DHT22;997;48.448;8.924;2022-10-31T05:40:24;10.50;99.90
1992;DHT22;997;48.448;8.924;2022-10-31T05:42:51;10.60;99.90
1992;DHT22;997;48.448;8.924;2022-10-31T05:45:18;10.70;99.90
1992;DHT22;997;48.448;8.924;2022-10-31T05:48:00;10.70;99.90
1992;DHT22;997;48.448;8.924;2022-10-31T05:50:28;10.70;99.90
1992;DHT22;997;48.448;8.924;2022-10-31T05:53:04;10.60;99.90
1992;DHT22;997;48.448;8.924;2022-10-31T05:55:31;10.60;99.90
1992;DHT22;997;48.448;8.924;2022-10-31T05:57:57;10.60;99.90
1992;DHT22;997;48.448;8.924;2022-10-31T06:00:24;10.50;99.90
1992;DHT22;997;48.448;8.924;2022-10-31T06:03:01;10.50;99.90
1992;DHT22;997;48.448;8.924;2022-10-31T06:05:27;10.50;99.90
1992;DHT22;997;48.448;8.924;2022-10-31T06:07:53;10.40;99.90
1992;DHT22;997;48.448;8.924;2022-10-31T06:10:19;10.30;99.90
1992;DHT22;997;48.448;8.924;2022-10-31T06:12:46;10.30;99.90
1992;DHT22;997;48.448;8.924;2022-10-31T06:15:13;10.30;99.90
1992;DHT22;997;48.448;8.924;2022-10-31T06:17:39;10.30;99.90
1992;DHT22;997;48.448;8.924;2022-10-31T06:20:05;10.30;99.90
1992;DHT22;997;48.448;8.924;2022-10-31T06:22:33;10.30;99.90
1992;DHT22;997;48.448;8.924;2022-10-31T06:24:59;10.30;99.90
1992;DHT22;997;48.448;8.924;2022-10-31T06:27:25;10.30;99.90
1992;DHT22;997;48.448;8.924;2022-10-31T06:29:51;10.40;99.90
1992;DHT22;997;48.448;8.924;2022-10-31T06:32:17;10.50;99.90
1992;DHT22;997;48.448;8.924;2022-10-31T06:34:43;10.50;99.90
1992;DHT22;997;48.448;8.924;2022-10-31T06:37:11;10.50;99.90
1992;DHT22;997;48.448;8.924;2022-10-31T06:39:37;10.50;99.90
1992;DHT22;997;48.448;8.924;2022-10-31T06:42:03;10.60;99.90
1992;DHT22;997;48.448;8.924;2022-10-31T06:44:30;10.50;99.90
1992;DHT22;997;48.448;8.924;2022-10-31T06:46:55;10.50;99.90
1992;DHT22;997;48.448;8.924;2022-10-31T06:49:21;10.40;99.90
1992;DHT22;997;48.448;8.924;2022-10-31T06:51:47;10.50;99.90
1992;DHT22;997;48.448;8.924;2022-10-31T06:54:14;10.50;99.90
1992;DHT22;997;48.448;8.924;2022-10-31T06:56:39;10.40;99.90
1992;DHT22;997;48.448;8.924;2022-10-31T06:59:05;10.30;99.90
1992;DHT22;997;48.448;8.924;2022-10-31T07:01:31;10.30;99.90
1992;DHT22;997;48.448;8.924;2022-10-31T07:03:57;10.20;99.90
1992;DHT22;997;48.448;8.924;2022-10-31T07:06:22;10.20;99.90
1992;DHT22;997;48.448;8.924;2022-10-31T07:08:48;10.20;99.90
1992;DHT22;997;48.448;8.924;2022-10-31T07:11:14;10.20;99.90
1992;DHT22;997;48.448;8.924;2022-10-31T07:13:39;10.40;99.90
1992;DHT22;997;48.448;8.924;2022-10-31T07:16:06;10.40;99.90
1992;DHT22;997;48.448;8.924;2022-10-31T07:18:33;10.50;99.90
1992;DHT22;997;48.448;8.924;2022-10-31T07:20:59;10.50;99.90
1992;DHT22;997;48.448;8.924;2022-10-31T07:23:26;10.60;99.90
1992;DHT22;997;48.448;8.924;2022-10-31T07:25:55;10.70;99.90
1992;DHT22;997;48.448;8.924;2022-10-31T07:28:22;10.70;99.90
1992;DHT22;997;48.448;8.924;2022-10-31T07:30:52;10.80;99.90
1992;DHT22;997;48.448;8.924;2022-10-31T07:33:18;10.90;99.90
1992;DHT22;997;48.448;8.924;2022-10-31T07:35:43;11.00;99.90
1992;DHT22;997;48.448;8.924;2022-10-31T07:38:11;11.10;99.90
1992;DHT22;997;48.448;8.924;2022-10-31T07:40:37;11.10;99.90
1992;DHT22;997;48.448;8.924;2022-10-31T07:43:02;11.20;99.90
1992;DHT22;997;48.448;8.924;2022-10-31T07:45:28;11.30;99.90
1992;DHT22;997;48.448;8.924;2022-10-31T07:47:54;11.40;99.90
1992;DHT22;997;48.448;8.924;2022-10-31T07:50:25;11.30;99.90
1992;DHT22;997;48.448;8.924;2022-10-31T07:53:08;11.40;99.90
1992;DHT22;997;48.448;8.924;2022-10-31T07:55:34;11.30;99.90
1992;DHT22;997;48.448;8.924;2022-10-31T07:58:03;11.30;99.90
1992;DHT22;997;48.448;8.924;2022-10-31T08:00:29;11.40;99.90
1992;DHT22;997;48.448;8.924;2022-10-31T08:03:03;11.50;99.90
1992;DHT22;997;48.448;8.924;2022-10-31T08:05:29;11.50;99.90
1992;DHT22;997;48.448;8.924;2022-10-31T08:07:56;11.60;99.90
1992;DHT22;997;48.448;8.924;2022-10-31T08:10:23;11.60;99.90
1992;DHT22;997;48.448;8.924;2022-10-31T08:13:18;11.70;99.90
1992;DHT22;997;48.448;8.924;2022-10-31T08:15:44;11.70;99.90
1992;DHT22;997;48.448;8.924;2022-10-31T08:18:15;11.80;99.90
1992;DHT22;997;48.448;8.924;2022-10-31T08:20:42;11.90;99.90
1992;DHT22;997;48.448;8.924;2022-10-31T08:23:10;12.00;99.90
1992;DHT22;997;48.448;8.924;2022-10-31T08:25:36;12.00;99.90
1992;DHT22;997;48.448;8.924;2022-10-31T08:28:02;12.20;99.90
1992;DHT22;997;48.448;8.924;2022-10-31T08:30:30;12.30;99.90
1992;DHT22;997;48.448;8.924;2022-10-31T08:33:10;12.40;99.90
1992;DHT22;997;48.448;8.924;2022-10-31T08:35:36;12.50;99.90
1992;DHT22;997;48.448;8.924;2022-10-31T08:38:02;12.60;99.90
1992;DHT22;997;48.448;8.924;2022-10-31T08:40:29;12.60;99.90
1992;DHT22;997;48.448;8.924;2022-10-31T08:43:00;12.60;99.90
1992;DHT22;997;48.448;8.924;2022-10-31T08:45:26;12.70;99.90
1992;DHT22;997;48.448;8.924;2022-10-31T08:47:56;12.80;99.90
1992;DHT22;997;48.448;8.924;2022-10-31T08:50:21;12.90;99.90
1992;DHT22;997;48.448;8.924;2022-10-31T08:52:47;12.90;99.90
1992;DHT22;997;48.448;8.924;2022-10-31T08:55:13;13.00;99.90
1992;DHT22;997;48.448;8.924;2022-10-31T08:57:39;13.00;99.90
1992;DHT22;997;48.448;8.924;2022-10-31T09:00:05;13.10;99.90
1992;DHT22;997;48.448;8.924;2022-10-31T09:02:31;13.10;99.90
1992;DHT22;997;48.448;8.924;2022-10-31T09:04:56;13.10;99.90
1992;DHT22;997;48.448;8.924;2022-10-31T09:07:22;13.10;99.90
1992;DHT22;997;48.448;8.924;2022-10-31T09:09:48;13.10;99.90
1992;DHT22;997;48.448;8.924;2022-10-31T09:12:13;13.10;99.90
1992;DHT22;997;48.448;8.924;2022-10-31T09:14:39;13.20;99.90
1992;DHT22;997;48.448;8.924;2022-10-31T09:17:04;13.30;99.90
1992;DHT22;997;48.448;8.924;2022-10-31T09:19:30;13.40;99.90
1992;DHT22;997;48.448;8.924;2022-10-31T09:21:56;13.50;99.90
1992;DHT22;997;48.448;8.924;2022-10-31T09:24:22;13.60;99.90
1992;DHT22;997;48.448;8.924;2022-10-31T09:26:47;13.70;99.90
1992;DHT22;997;48.448;8.924;2022-10-31T09:29:13;13.80;99.90
1992;DHT22;997;48.448;8.924;2022-10-31T09:31:39;13.80;99.90
1992;DHT22;997;48.448;8.924;2022-10-31T09:34:04;14.00;99.90
1992;DHT22;997;48.448;8.924;2022-10-31T09:36:30;14.00;99.90
1992;DHT22;997;48.448;8.924;2022-10-31T09:38:56;14.20;99.90
1992;DHT22;997;48.448;8.924;2022-10-31T09:41:33;14.30;99.90
1992;DHT22;997;48.448;8.924;2022-10-31T09:44:07;14.40;99.90
1992;DHT22;997;48.448;8.924;2022-10-31T09:46:47;14.50;99.90
1992;DHT22;997;48.448;8.924;2022-10-31T09:52:34;14.60;99.90
1992;DHT22;997;48.448;8.924;2022-10-31T09:57:36;14.80;99.90
1992;DHT22;997;48.448;8.924;2022-10-31T10:00:09;14.90;99.90
1992;DHT22;997;48.448;8.924;2022-10-31T10:05:41;15.20;99.90
1992;DHT22;997;48.448;8.924;2022-10-31T10:08:13;15.30;99.90
1992;DHT22;997;48.448;8.924;2022-10-31T10:10:55;15.40;99.90
1992;DHT22;997;48.448;8.924;2022-10-31T10:26:36;16.20;99.90
1992;DHT22;997;48.448;8.924;2022-10-31T10:31:42;16.60;99.90
1992;DHT22;997;48.448;8.924;2022-10-31T10:34:40;16.70;99.90
1992;DHT22;997;48.448;8.924;2022-10-31T10:37:24;17.00;99.90
1992;DHT22;997;48.448;8.924;2022-10-31T10:40:18;17.20;99.90
1992;DHT22;997;48.448;8.924;2022-10-31T10:43:18;17.20;99.90
1992;DHT22;997;48.448;8.924;2022-10-31T10:48:46;17.60;99.90
1992;DHT22;997;48.448;8.924;2022-10-31T10:52:13;17.70;99.90
1992;DHT22;997;48.448;8.924;2022-10-31T10:59:27;18.30;99.90
1992;DHT22;997;48.448;8.924;2022-10-31T11:01:53;18.40;99.90
1992;DHT22;997;48.448;8.924;2022-10-31T11:04:29;18.40;99.90
1992;DHT22;997;48.448;8.924;2022-10-31T11:07:06;18.40;99.90
1992;DHT22;997;48.448;8.924;2022-10-31T11:09:33;18.50;99.90
1992;DHT22;997;48.448;8.924;2022-10-31T11:11:59;18.60;99.90
1992;DHT22;997;48.448;8.924;2022-10-31T11:14:27;18.50;99.90
1992;DHT22;997;48.448;8.924;2022-10-31T11:17:20;18.50;99.90
1992;DHT22;997;48.448;8.924;2022-10-31T11:19:47;18.60;99.90
1992;DHT22;997;48.448;8.924;2022-10-31T11:22:16;18.80;99.90
1992;DHT22;997;48.448;8.924;2022-10-31T11:24:43;19.00;99.90
1992;DHT22;997;48.448;8.924;2022-10-31T11:27:20;18.90;99.90
1992;DHT22;997;48.448;8.924;2022-10-31T11:29:47;19.00;99.90
1992;DHT22;997;48.448;8.924;2022-10-31T11:32:20;19.00;99.90
1992;DHT22;997;48.448;8.924;2022-10-31T11:34:51;18.90;99.90
1992;DHT22;997;48.448;8.924;2022-10-31T11:37:25;19.00;99.90
1992;DHT22;997;48.448;8.924;2022-10-31T11:39:56;19.10;99.90
1992;DHT22;997;48.448;8.924;2022-10-31T11:42:26;19.00;99.90
1992;DHT22;997;48.448;8.924;2022-10-31T11:44:53;18.90;99.90
1992;DHT22;997;48.448;8.924;2022-10-31T11:47:29;18.90;99.90
1992;DHT22;997;48.448;8.924;2022-10-31T11:49:56;18.90;99.90
1992;DHT22;997;48.448;8.924;2022-10-31T11:52:25;18.80;99.90
1992;DHT22;997;48.448;8.924;2022-10-31T11:57:49;18.90;99.90
1992;DHT22;997;48.448;8.924;2022-10-31T12:00:25;19.10;99.90
1992;DHT22;997;48.448;8.924;2022-10-31T12:03:03;19.10;99.90
1992;DHT22;997;48.448;8.924;2022-10-31T12:05:30;18.90;99.90
1992;DHT22;997;48.448;8.924;2022-10-31T12:07:58;18.80;99.90
1992;DHT22;997;48.448;8.924;2022-10-31T12:10:31;18.80;99.90
1992;DHT22;997;48.448;8.924;2022-10-31T12:13:32;18.80;99.90
1992;DHT22;997;48.448;8.924;2022-10-31T12:16:16;18.80;99.90
1992;DHT22;997;48.448;8.924;2022-10-31T12:19:06;18.70;99.90
1992;DHT22;997;48.448;8.924;2022-10-31T12:27:44;18.70;99.90
1992;DHT22;997;48.448;8.924;2022-10-31T12:30:19;18.80;99.90
1992;DHT22;997;48.448;8.924;2022-10-31T12:33:11;18.90;99.90
1992;DHT22;997;48.448;8.924;2022-10-31T12:36:08;18.90;99.90
1992;DHT22;997;48.448;8.924;2022-10-31T12:43:57;19.00;99.90
1992;DHT22;997;48.448;8.924;2022-10-31T12:49:46;19.20;99.90
1992;DHT22;997;48.448;8.924;2022-10-31T12:52:19;19.40;99.90
1992;DHT22;997;48.448;8.924;2022-10-31T12:55:14;19.50;99.90
1992;DHT22;997;48.448;8.924;2022-10-31T12:57:46;19.50;99.90
1992;DHT22;997;48.448;8.924;2022-10-31T13:02:51;19.50;99.90
1992;DHT22;997;48.448;8.924;2022-10-31T13:08:07;19.60;99.90
1992;DHT22;997;48.448;8.924;2022-10-31T13:13:21;19.50;99.90
1992;DHT22;997;48.448;8.924;2022-10-31T13:16:02;19.60;99.90
1992;DHT22;997;48.448;8.924;2022-10-31T13:18:50;19.80;99.90
1992;DHT22;997;48.448;8.924;2022-10-31T13:21:21;20.00;99.90
1992;DHT22;997;48.448;8.924;2022-10-31T13:23:50;20.10;99.90
1992;DHT22;997;48.448;8.924;2022-10-31T13:26:23;20.20;99.90
1992;DHT22;997;48.448;8.924;2022-10-31T13:29:03;20.20;99.90
1992;DHT22;997;48.448;8.924;2022-10-31T13:31:30;20.30;99.90
1992;DHT22;997;48.448;8.924;2022-10-31T13:34:00;20.50;99.90
1992;DHT22;997;48.448;8.924;2022-10-31T13:36:45;20.60;99.90
1992;DHT22;997;48.448;8.924;2022-10-31T13:42:21;20.70;99.90
1992;DHT22;997;48.448;8.924;2022-10-31T13:44:49;20.80;99.90
1992;DHT22;997;48.448;8.924;2022-10-31T13:47:33;20.70;99.90
1992;DHT22;997;48.448;8.924;2022-10-31T13:50:20;20.60;99.90
1992;DHT22;997;48.448;8.924;2022-10-31T13:52:46;20.80;99.90
1992;DHT22;997;48.448;8.924;2022-10-31T13:56:05;20.80;99.90
1992;DHT22;997;48.448;8.924;2022-10-31T13:58:36;20.80;99.90
1992;DHT22;997;48.448;8.924;2022-10-31T14:03:31;20.80;99.90
1992;DHT22;997;48.448;8.924;2022-10-31T14:05:58;21.00;99.90
1992;DHT22;997;48.448;8.924;2022-10-31T14:08:24;21.10;99.90
1992;DHT22;997;48.448;8.924;2022-10-31T14:10:52;21.20;99.90
1992;DHT22;997;48.448;8.924;2022-10-31T14:13:24;21.20;99.90
1992;DHT22;997;48.448;8.924;2022-10-31T14:15:58;21.10;99.90
1992;DHT22;997;48.448;8.924;2022-10-31T14:20:56;21.30;99.90
1992;DHT22;997;48.448;8.924;2022-10-31T14:26:32;21.30;99.90
1992;DHT22;997;48.448;8.924;2022-10-31T14:31:51;21.30;99.90
1992;DHT22;997;48.448;8.924;2022-10-31T14:34:33;21.20;99.90
1992;DHT22;997;48.448;8.924;2022-10-31T14:51:40;20.90;99.90
1992;DHT22;997;48.448;8.924;2022-10-31T14:54:30;21.00;99.90
1992;DHT22;997;48.448;8.924;2022-10-31T14:57:12;20.80;99.90
1992;DHT22;997;48.448;8.924;2022-10-31T14:59:42;20.60;99.90
1992;DHT22;997;48.448;8.924;2022-10-31T15:02:20;20.50;99.90
1992;DHT22;997;48.448;8.924;2022-10-31T15:04:50;20.50;99.90
1992;DHT22;997;48.448;8.924;2022-10-31T15:07:26;20.50;99.90
1992;DHT22;997;48.448;8.924;2022-10-31T15:10:15;20.40;99.90
1992;DHT22;997;48.448;8.924;2022-10-31T15:12:43;20.30;99.90
1992;DHT22;997;48.448;8.924;2022-10-31T15:15:21;20.10;99.90
1992;DHT22;997;48.448;8.924;2022-10-31T15:17:58;20.00;99.90
1992;DHT22;997;48.448;8.924;2022-10-31T15:20:36;19.80;99.90
1992;DHT22;997;48.448;8.924;2022-10-31T15:23:03;19.60;99.90
1992;DHT22;997;48.448;8.924;2022-10-31T15:25:32;19.60;99.90
1992;DHT22;997;48.448;8.924;2022-10-31T15:27:58;19.70;99.90
1992;DHT22;997;48.448;8.924;2022-10-31T15:30:29;19.70;99.90
1992;DHT22;997;48.448;8.924;2022-10-31T15:32:54;19.70;99.90
1992;DHT22;997;48.448;8.924;2022-10-31T15:35:30;19.70;99.90
1992;DHT22;997;48.448;8.924;2022-10-31T15:37:59;19.60;99.90
1992;DHT22;997;48.448;8.924;2022-10-31T15:40:27;19.40;99.90
1992;DHT22;997;48.448;8.924;2022-10-31T15:43:00;19.20;99.90
1992;DHT22;997;48.448;8.924;2022-10-31T15:45:28;19.20;99.90
1992;DHT22;997;48.448;8.924;2022-10-31T15:48:18;19.20;99.90
1992;DHT22;997;48.448;8.924;2022-10-31T15:50:54;19.10;99.90
1992;DHT22;997;48.448;8.924;2022-10-31T15:53:24;18.90;99.90
1992;DHT22;997;48.448;8.924;2022-10-31T15:56:02;18.90;99.90
1992;DHT22;997;48.448;8.924;2022-10-31T15:58:28;18.80;99.90
1992;DHT22;997;48.448;8.924;2022-10-31T16:01:00;18.90;99.90
1992;DHT22;997;48.448;8.924;2022-10-31T16:03:31;18.90;99.90
1992;DHT22;997;48.448;8.924;2022-10-31T16:06:03;19.00;99.90
1992;DHT22;997;48.448;8.924;2022-10-31T16:13:34;18.80;99.90
1992;DHT22;997;48.448;8.924;2022-10-31T16:16:15;18.70;99.90
1992;DHT22;997;48.448;8.924;2022-10-31T16:18:42;18.70;99.90
1992;DHT22;997;48.448;8.924;2022-10-31T16:21:08;18.70;99.90
1992;DHT22;997;48.448;8.924;2022-10-31T16:23:37;18.40;99.90
1992;DHT22;997;48.448;8.924;2022-10-31T16:26:07;18.30;99.90
1992;DHT22;997;48.448;8.924;2022-10-31T16:28:34;18.20;99.90
1992;DHT22;997;48.448;8.924;2022-10-31T16:31:00;18.20;99.90
1992;DHT22;997;48.448;8.924;2022-10-31T16:33:36;18.10;99.90
1992;DHT22;997;48.448;8.924;2022-10-31T16:38:56;18.00;99.90
1992;DHT22;997;48.448;8.924;2022-10-31T16:41:23;17.90;99.90
1992;DHT22;997;48.448;8.924;2022-10-31T16:43:49;17.80;99.90
1992;DHT22;997;48.448;8.924;2022-10-31T16:46:20;17.70;99.90
1992;DHT22;997;48.448;8.924;2022-10-31T16:48:47;17.60;99.90
1992;DHT22;997;48.448;8.924;2022-10-31T16:51:13;17.60;99.90
1992;DHT22;997;48.448;8.924;2022-10-31T16:53:38;17.50;99.90
1992;DHT22;997;48.448;8.924;2022-10-31T16:56:04;17.50;99.90
1992;DHT22;997;48.448;8.924;2022-10-31T16:58:34;17.50;99.90
1992;DHT22;997;48.448;8.924;2022-10-31T17:01:02;17.30;99.90
1992;DHT22;997;48.448;8.924;2022-10-31T17:03:29;17.20;99.90
1992;DHT22;997;48.448;8.924;2022-10-31T17:05:56;17.30;99.90
1992;DHT22;997;48.448;8.924;2022-10-31T17:08:22;17.20;99.90
1992;DHT22;997;48.448;8.924;2022-10-31T17:10:52;17.20;99.90
1992;DHT22;997;48.448;8.924;2022-10-31T17:13:21;17.30;99.90
1992;DHT22;997;48.448;8.924;2022-10-31T17:15:49;17.20;99.90
1992;DHT22;997;48.448;8.924;2022-10-31T17:18:16;17.30;99.90
1992;DHT22;997;48.448;8.924;2022-10-31T17:20:42;17.30;99.90
1992;DHT22;997;48.448;8.924;2022-10-31T17:23:10;17.30;99.90
1992;DHT22;997;48.448;8.924;2022-10-31T17:25:36;17.30;99.90
1992;DHT22;997;48.448;8.924;2022-10-31T17:28:02;17.30;99.90
1992;DHT22;997;48.448;8.924;2022-10-31T17:30:28;17.30;99.90
1992;DHT22;997;48.448;8.924;2022-10-31T17:32:54;17.10;99.90
1992;DHT22;997;48.448;8.924;2022-10-31T17:35:20;17.10;99.90
1992;DHT22;997;48.448;8.924;2022-10-31T17:37:47;17.10;99.90
1992;DHT22;997;48.448;8.924;2022-10-31T17:40:15;17.10;99.90
1992;DHT22;997;48.448;8.924;2022-10-31T17:42:41;17.10;99.90
1992;DHT22;997;48.448;8.924;2022-10-31T17:45:07;17.10;99.90
1992;DHT22;997;48.448;8.924;2022-10-31T17:47:34;16.90;99.90
1992;DHT22;997;48.448;8.924;2022-10-31T17:50:00;16.80;99.90
1992;DHT22;997;48.448;8.924;2022-10-31T17:52:25;16.30;99.90
1992;DHT22;997;48.448;8.924;2022-10-31T17:54:51;16.20;99.90
1992;DHT22;997;48.448;8.924;2022-10-31T17:57:17;16.10;99.90
1992;DHT22;997;48.448;8.924;2022-10-31T17:59:43;16.10;99.90
1992;DHT22;997;48.448;8.924;2022-10-31T18:02:09;16.00;99.90
1992;DHT22;997;48.448;8.924;2022-10-31T18:04:36;16.00;99.90
1992;DHT22;997;48.448;8.924;2022-10-31T18:07:02;16.00;99.90
1992;DHT22;997;48.448;8.924;2022-10-31T18:09:28;16.00;99.90
1992;DHT22;997;48.448;8.924;2022-10-31T18:11:54;15.80;99.90
1992;DHT22;997;48.448;8.924;2022-10-31T18:14:20;15.80;99.90
1992;DHT22;997;48.448;8.924;2022-10-31T18:16:46;15.80;99.90
1992;DHT22;997;48.448;8.924;2022-10-31T18:19:13;15.60;99.90
1992;DHT22;997;48.448;8.924;2022-10-31T18:21:40;15.50;99.90
1992;DHT22;997;48.448;8.924;2022-10-31T18:24:07;15.40;99.90
1992;DHT22;997;48.448;8.924;2022-10-31T18:26:33;15.20;99.90
1992;DHT22;997;48.448;8.924;2022-10-31T18:28:59;15.20;99.90
1992;DHT22;997;48.448;8.924;2022-10-31T18:31:25;15.20;99.90
1992;DHT22;997;48.448;8.924;2022-10-31T18:33:55;15.20;99.90
1992;DHT22;997;48.448;8.924;2022-10-31T18:36:21;15.20;99.90
1992;DHT22;997;48.448;8.924;2022-10-31T18:38:47;15.10;99.90
1992;DHT22;997;48.448;8.924;2022-10-31T18:41:13;15.00;99.90
1992;DHT22;997;48.448;8.924;2022-10-31T18:43:40;15.00;99.90
1992;DHT22;997;48.448;8.924;2022-10-31T18:46:08;15.00;99.90
1992;DHT22;997;48.448;8.924;2022-10-31T18:48:35;15.00;99.90
1992;DHT22;997;48.448;8.924;2022-10-31T18:51:05;15.10;99.90
1992;DHT22;997;48.448;8.924;2022-10-31T18:53:31;14.60;99.90
1992;DHT22;997;48.448;8.924;2022-10-31T18:55:57;14.50;99.90
1992;DHT22;997;48.448;8.924;2022-10-31T18:58:24;14.50;99.90
1992;DHT22;997;48.448;8.924;2022-10-31T19:00:50;14.40;99.90
1992;DHT22;997;48.448;8.924;2022-10-31T19:03:16;14.40;99.90
1992;DHT22;997;48.448;8.924;2022-10-31T19:05:42;14.30;99.90
1992;DHT22;997;48.448;8.924;2022-10-31T19:08:08;14.50;99.90
1992;DHT22;997;48.448;8.924;2022-10-31T19:10:35;14.50;99.90
1992;DHT22;997;48.448;8.924;2022-10-31T19:13:02;14.60;99.90
1992;DHT22;997;48.448;8.924;2022-10-31T19:15:28;14.60;99.90
1992;DHT22;997;48.448;8.924;2022-10-31T19:17:54;14.60;99.90
1992;DHT22;997;48.448;8.924;2022-10-31T19:20:20;14.50;99.90
1992;DHT22;997;48.448;8.924;2022-10-31T19:22:46;14.50;99.90
1992;DHT22;997;48.448;8.924;2022-10-31T19:25:11;14.40;99.90
1992;DHT22;997;48.448;8.924;2022-10-31T19:27:38;14.30;99.90
1992;DHT22;997;48.448;8.924;2022-10-31T19:30:05;14.20;99.90
1992;DHT22;997;48.448;8.924;2022-10-31T19:32:30;14.20;99.90
1992;DHT22;997;48.448;8.924;2022-10-31T19:34:56;14.10;99.90
1992;DHT22;997;48.448;8.924;2022-10-31T19:37:22;14.00;99.90
1992;DHT22;997;48.448;8.924;2022-10-31T19:39:47;13.90;99.90
1992;DHT22;997;48.448;8.924;2022-10-31T19:42:13;13.90;99.90
1992;DHT22;997;48.448;8.924;2022-10-31T19:44:39;13.90;99.90
1992;DHT22;997;48.448;8.924;2022-10-31T19:47:04;13.90;99.90
1992;DHT22;997;48.448;8.924;2022-10-31T19:49:30;14.00;99.90
1992;DHT22;997;48.448;8.924;2022-10-31T19:51:56;13.90;99.90
1992;DHT22;997;48.448;8.924;2022-10-31T19:54:21;13.90;99.90
1992;DHT22;997;48.448;8.924;2022-10-31T19:56:47;14.00;99.90
1992;DHT22;997;48.448;8.924;2022-10-31T19:59:13;14.10;99.90
1992;DHT22;997;48.448;8.924;2022-10-31T20:01:38;14.10;99.90
1992;DHT22;997;48.448;8.924;2022-10-31T20:04:04;14.10;99.90
1992;DHT22;997;48.448;8.924;2022-10-31T20:06:40;14.10;99.90
1992;DHT22;997;48.448;8.924;2022-10-31T20:09:08;14.30;99.90
1992;DHT22;997;48.448;8.924;2022-10-31T20:11:36;14.30;99.90
1992;DHT22;997;48.448;8.924;2022-10-31T20:14:02;14.20;99.90
1992;DHT22;997;48.448;8.924;2022-10-31T20:16:28;14.20;99.90
1992;DHT22;997;48.448;8.924;2022-10-31T20:18:55;14.20;99.90
1992;DHT22;997;48.448;8.924;2022-10-31T20:21:23;14.10;99.90
1992;DHT22;997;48.448;8.924;2022-10-31T20:23:58;14.10;99.90
1992;DHT22;997;48.448;8.924;2022-10-31T20:26:24;14.10;99.90
1992;DHT22;997;48.448;8.924;2022-10-31T20:28:50;14.00;99.90
1992;DHT22;997;48.448;8.924;2022-10-31T20:31:19;14.00;99.90
1992;DHT22;997;48.448;8.924;2022-10-31T20:33:46;13.90;99.90
1992;DHT22;997;48.448;8.924;2022-10-31T20:36:12;13.90;99.90
1992;DHT22;997;48.448;8.924;2022-10-31T20:38:40;13.90;99.90
1992;DHT22;997;48.448;8.924;2022-10-31T20:41:08;14.00;99.90
1992;DHT22;997;48.448;8.924;2022-10-31T20:43:34;14.00;99.90
1992;DHT22;997;48.448;8.924;2022-10-31T20:46:01;14.00;99.90
1992;DHT22;997;48.448;8.924;2022-10-31T20:48:28;14.00;99.90
1992;DHT22;997;48.448;8.924;2022-10-31T20:51:05;14.00;99.90
1992;DHT22;997;48.448;8.924;2022-10-31T20:53:32;14.10;99.90
1992;DHT22;997;48.448;8.924;2022-10-31T20:56:06;14.10;99.90
1992;DHT22;997;48.448;8.924;2022-10-31T20:58:32;14.10;99.90
1992;DHT22;997;48.448;8.924;2022-10-31T21:00:58;14.10;99.90
1992;DHT22;997;48.448;8.924;2022-10-31T21:03:25;14.20;99.90
1992;DHT22;997;48.448;8.924;2022-10-31T21:05:55;14.30;99.90
1992;DHT22;997;48.448;8.924;2022-10-31T21:08:22;14.30;99.90
1992;DHT22;997;48.448;8.924;2022-10-31T21:10:47;14.40;99.90
1992;DHT22;997;48.448;8.924;2022-10-31T21:13:13;14.40;99.90
1992;DHT22;997;48.448;8.924;2022-10-31T21:15:39;14.50;99.90
1992;DHT22;997;48.448;8.924;2022-10-31T21:18:05;14.50;99.90
1992;DHT22;997;48.448;8.924;2022-10-31T21:20:30;14.70;99.90
1992;DHT22;997;48.448;8.924;2022-10-31T21:22:56;14.70;99.90
1992;DHT22;997;48.448;8.924;2022-10-31T21:25:21;14.90;99.90
1992;DHT22;997;48.448;8.924;2022-10-31T21:27:47;15.00;99.90
1992;DHT22;997;48.448;8.924;2022-10-31T21:30:13;15.10;99.90
1992;DHT22;997;48.448;8.924;2022-10-31T21:32:39;15.20;99.90
1992;DHT22;997;48.448;8.924;2022-10-31T21:35:05;15.40;99.90
1992;DHT22;997;48.448;8.924;2022-10-31T21:37:32;15.50;99.90
1992;DHT22;997;48.448;8.924;2022-10-31T21:39:57;15.50;99.90
1992;DHT22;997;48.448;8.924;2022-10-31T21:42:23;15.50;99.90
1992;DHT22;997;48.448;8.924;2022-10-31T21:44:49;15.50;99.90
1992;DHT22;997;48.448;8.924;2022-10-31T21:47:15;15.60;99.90
1992;DHT22;997;48.448;8.924;2022-10-31T21:49:41;15.50;99.90
1992;DHT22;997;48.448;8.924;2022-10-31T21:52:07;15.50;99.90
1992;DHT22;997;48.448;8.924;2022-10-31T21:54:33;15.40;99.90
1992;DHT22;997;48.448;8.924;2022-10-31T21:57:00;15.40;99.90
1992;DHT22;997;48.448;8.924;2022-10-31T21:59:26;15.60;99.90
1992;DHT22;997;48.448;8.924;2022-10-31T22:01:52;15.60;99.90
1992;DHT22;997;48.448;8.924;2022-10-31T22:04:20;15.60;99.90
1992;DHT22;997;48.448;8.924;2022-10-31T22:06:45;15.60;99.90
1992;DHT22;997;48.448;8.924;2022-10-31T22:09:13;15.60;99.90